createdAt,value
2022-12-04T01:10:11.428Z,41
2022-12-04T01:32:10.785Z,41
2022-12-04T02:04:10.822Z,35
2022-12-04T02:21:10.806Z,38
2022-12-04T03:04:10.622Z,37
2022-12-04T04:30:10.927Z,26
2022-12-04T05:31:10.951Z,24
2022-12-04T06:26:32.436Z,28
2022-12-04T06:50:10.662Z,23
2022-12-04T07:12:10.671Z,23
2022-12-04T08:10:10.615Z,22
2022-12-04T08:34:11.384Z,20
2022-12-04T09:35:10.682Z,24
2022-12-04T10:05:10.607Z,24
2022-12-04T10:38:10.618Z,26
2022-12-04T10:59:10.610Z,29
2022-12-04T11:01:10.743Z,23
2022-12-04T11:17:10.934Z,26
2022-12-04T11:47:32.442Z,28
2022-12-04T11:56:10.658Z,26
2022-12-04T12:08:10.842Z,26
2022-12-04T12:21:10.620Z,24
2022-12-04T12:58:10.606Z,21
2022-12-04T13:00:10.639Z,19
2022-12-04T13:14:10.608Z,20
2022-12-04T13:21:10.610Z,24
2022-12-04T13:28:10.624Z,28
2022-12-04T13:29:10.613Z,28
2022-12-04T13:40:11.243Z,24
2022-12-04T13:50:10.779Z,20
2022-12-04T13:54:10.651Z,19
2022-12-04T14:00:10.627Z,21
2022-12-04T14:08:10.667Z,20
2022-12-04T14:15:10.621Z,16
2022-12-04T14:16:10.615Z,18
2022-12-04T14:22:10.614Z,17
2022-12-04T14:29:10.618Z,17
2022-12-04T14:31:10.699Z,15
2022-12-04T14:38:10.607Z,19
2022-12-04T14:47:14.921Z,22
2022-12-04T14:52:10.603Z,21
2022-12-04T14:55:10.619Z,18
2022-12-04T15:02:10.623Z,24
2022-12-04T15:10:10.840Z,21
2022-12-04T15:14:10.634Z,21
2022-12-04T15:20:10.655Z,25
2022-12-04T15:26:11.953Z,21
2022-12-04T15:27:10.617Z,20
2022-12-04T15:28:10.616Z,21
2022-12-04T15:32:10.606Z,21
2022-12-04T15:33:10.622Z,22
2022-12-04T15:34:10.623Z,26
2022-12-04T15:38:10.609Z,26
2022-12-04T15:41:10.607Z,22
2022-12-04T15:48:10.607Z,24
2022-12-04T16:00:10.661Z,30
2022-12-04T16:02:10.713Z,27
2022-12-04T16:04:10.628Z,33
2022-12-04T16:05:10.604Z,31
2022-12-04T16:07:10.627Z,30
2022-12-04T16:09:10.670Z,31
2022-12-04T16:10:10.604Z,32
2022-12-04T16:11:10.610Z,30
2022-12-04T16:12:10.605Z,31
2022-12-04T16:14:10.607Z,31
2022-12-04T16:15:10.641Z,32
2022-12-04T16:17:10.984Z,30
2022-12-04T16:18:10.607Z,33
2022-12-04T16:20:10.609Z,31
2022-12-04T16:23:10.663Z,31
2022-12-04T16:27:10.694Z,29
2022-12-04T16:30:10.605Z,31
2022-12-04T16:32:10.604Z,33
2022-12-04T16:34:10.614Z,31
2022-12-04T16:35:10.636Z,32
2022-12-04T16:36:10.607Z,32
2022-12-04T16:37:10.672Z,32
2022-12-04T16:38:10.604Z,30
2022-12-04T16:39:10.612Z,28
2022-12-04T16:40:10.603Z,29
2022-12-04T16:41:10.618Z,35
2022-12-04T16:44:10.644Z,33
2022-12-04T16:47:10.649Z,31
2022-12-04T16:48:10.606Z,33
2022-12-04T16:49:10.610Z,33
2022-12-04T16:51:10.653Z,29
2022-12-04T16:52:10.606Z,32
2022-12-04T16:53:10.604Z,31
2022-12-04T16:54:10.613Z,32
2022-12-04T16:55:10.609Z,30
2022-12-04T16:56:10.611Z,29
2022-12-04T16:58:10.614Z,33
2022-12-04T16:59:12.218Z,34
2022-12-04T17:00:10.615Z,33
2022-12-04T17:01:10.607Z,29
2022-12-04T17:02:10.684Z,28
2022-12-04T17:05:10.620Z,33
2022-12-04T17:06:10.612Z,35
2022-12-04T17:07:10.605Z,36
2022-12-04T17:08:32.421Z,32
2022-12-04T17:09:10.616Z,34
2022-12-04T17:10:10.610Z,31
2022-12-04T17:11:10.605Z,34
2022-12-04T17:13:10.608Z,32
2022-12-04T17:14:10.609Z,35
2022-12-04T17:15:10.615Z,33
2022-12-04T17:16:14.050Z,37
2022-12-04T17:17:10.639Z,35
2022-12-04T17:18:13.884Z,36
2022-12-04T17:19:10.667Z,35
2022-12-04T17:20:10.613Z,34
2022-12-04T17:21:10.609Z,34
2022-12-04T17:22:10.641Z,35
2022-12-04T17:23:10.609Z,34
2022-12-04T17:24:10.619Z,36
2022-12-04T17:25:10.630Z,33
2022-12-04T17:26:10.659Z,31
2022-12-04T17:27:10.607Z,33
2022-12-04T17:28:10.614Z,31
2022-12-04T17:29:10.607Z,30
2022-12-04T17:30:10.610Z,32
2022-12-04T17:31:10.665Z,30
2022-12-04T17:32:10.613Z,31
2022-12-04T17:33:10.643Z,31
2022-12-04T17:34:10.606Z,32
2022-12-04T17:35:10.614Z,31
2022-12-04T17:36:10.608Z,31
2022-12-04T17:37:10.613Z,29
2022-12-04T17:38:10.609Z,29
2022-12-04T17:39:10.610Z,33
2022-12-04T17:40:10.614Z,34
2022-12-04T17:41:10.633Z,35
2022-12-04T17:42:10.606Z,34
2022-12-04T17:43:10.613Z,28
2022-12-04T17:44:10.607Z,32
2022-12-04T17:45:10.619Z,30
2022-12-04T17:46:10.727Z,31
2022-12-04T17:47:10.692Z,33
2022-12-04T17:48:10.615Z,33
2022-12-04T17:49:10.613Z,33
2022-12-04T17:50:10.613Z,35
2022-12-04T17:51:10.619Z,31
2022-12-04T17:52:10.611Z,33
2022-12-04T17:53:10.645Z,33
2022-12-04T17:54:10.621Z,33
2022-12-04T17:55:10.620Z,33
2022-12-04T17:56:10.615Z,36
2022-12-04T17:57:10.620Z,36
2022-12-04T17:58:10.611Z,38
2022-12-04T17:59:10.610Z,33
2022-12-04T18:00:10.612Z,35
2022-12-04T18:01:10.741Z,36
2022-12-04T18:02:10.610Z,32
2022-12-04T18:03:10.659Z,37
2022-12-04T18:04:10.628Z,39
2022-12-04T18:05:10.626Z,36
2022-12-04T18:06:10.682Z,38
2022-12-04T18:07:10.606Z,38
2022-12-04T18:09:10.649Z,36
2022-12-04T18:10:10.609Z,43
2022-12-04T18:11:10.675Z,44
2022-12-04T18:12:10.611Z,45
2022-12-04T18:13:10.614Z,39
2022-12-04T18:14:12.539Z,36
2022-12-04T18:15:10.618Z,40
2022-12-04T18:16:10.648Z,39
2022-12-04T18:17:10.607Z,43
2022-12-04T18:18:10.609Z,38
2022-12-04T18:19:10.621Z,43
2022-12-04T18:20:11.091Z,38
2022-12-04T18:21:10.612Z,38
2022-12-04T18:22:10.620Z,40
2022-12-04T18:23:10.617Z,39
2022-12-04T18:24:10.618Z,41
2022-12-04T18:25:10.620Z,41
2022-12-04T18:26:10.623Z,42
2022-12-04T18:27:10.615Z,41
2022-12-04T18:28:10.613Z,45
2022-12-04T18:29:10.612Z,43
2022-12-04T18:30:10.611Z,43
2022-12-04T18:31:10.679Z,42
2022-12-04T18:32:10.656Z,40
2022-12-04T18:33:14.808Z,43
2022-12-04T18:34:10.616Z,43
2022-12-04T18:35:10.614Z,40
2022-12-04T18:36:10.626Z,41
2022-12-04T18:37:10.613Z,43
2022-12-04T18:38:10.617Z,41
2022-12-04T18:39:10.619Z,38
2022-12-04T18:40:10.640Z,43
2022-12-04T18:41:10.616Z,45
2022-12-04T18:42:10.624Z,41
2022-12-04T18:43:10.628Z,38
2022-12-04T18:44:10.633Z,39
2022-12-04T18:45:10.619Z,43
2022-12-04T18:46:10.659Z,42
2022-12-04T18:47:10.621Z,39
2022-12-04T18:48:10.618Z,39
2022-12-04T18:49:10.618Z,45
2022-12-04T18:50:10.618Z,41
2022-12-04T18:51:10.618Z,37
2022-12-04T18:52:10.627Z,44
2022-12-04T18:53:10.625Z,40
2022-12-04T18:54:10.627Z,39
2022-12-04T18:55:10.621Z,41
2022-12-04T18:56:10.615Z,43
2022-12-04T18:57:10.625Z,43
2022-12-04T18:58:10.622Z,37
2022-12-04T18:59:10.617Z,39
2022-12-04T19:00:10.618Z,44
2022-12-04T19:01:10.652Z,45
2022-12-04T19:02:10.676Z,38
2022-12-04T19:03:10.615Z,42
2022-12-04T19:04:10.619Z,41
2022-12-04T19:05:10.614Z,47
2022-12-04T19:06:10.694Z,42
2022-12-04T19:07:10.619Z,38
2022-12-04T19:08:10.755Z,40
2022-12-04T19:09:10.622Z,40
2022-12-04T19:10:11.431Z,40
2022-12-04T19:11:10.647Z,38
2022-12-04T19:12:10.616Z,42
2022-12-04T19:13:10.633Z,42
2022-12-04T19:14:20.822Z,40
2022-12-04T19:15:10.623Z,44
2022-12-04T19:16:10.692Z,38
2022-12-04T19:17:10.622Z,38
2022-12-04T19:18:10.618Z,40
2022-12-04T19:19:10.625Z,43
2022-12-04T19:20:10.623Z,43
2022-12-04T19:21:10.627Z,38
2022-12-04T19:22:10.628Z,44
2022-12-04T19:23:10.642Z,36
2022-12-04T19:24:10.622Z,41
2022-12-04T19:25:10.649Z,40
2022-12-04T19:26:10.627Z,44
2022-12-04T19:27:10.620Z,40
2022-12-04T19:28:10.618Z,40
2022-12-04T19:29:10.622Z,41
2022-12-04T19:30:10.627Z,41
2022-12-04T19:32:10.676Z,44
2022-12-04T19:33:10.622Z,41
2022-12-04T19:34:10.624Z,41
2022-12-04T19:35:10.624Z,45
2022-12-04T19:36:10.617Z,42
2022-12-04T19:37:10.635Z,43
2022-12-04T19:38:10.620Z,45
2022-12-04T19:39:10.633Z,46
2022-12-04T19:40:10.622Z,47
2022-12-04T19:41:10.624Z,44
2022-12-04T19:42:11.312Z,46
2022-12-04T19:43:10.634Z,39
2022-12-04T19:44:40.260Z,43
2022-12-04T19:45:10.628Z,42
2022-12-04T19:46:10.695Z,42
2022-12-04T19:47:10.618Z,39
2022-12-04T19:48:10.625Z,40
2022-12-04T19:49:10.619Z,39
2022-12-04T19:50:10.627Z,37
2022-12-04T19:51:10.624Z,41
2022-12-04T19:52:10.629Z,37
2022-12-04T19:53:10.619Z,43
2022-12-04T19:54:10.624Z,41
2022-12-04T19:55:10.629Z,44
2022-12-04T19:56:10.628Z,32
2022-12-04T19:57:10.623Z,39
2022-12-04T19:58:10.631Z,38
2022-12-04T19:59:10.645Z,36
2022-12-04T20:00:10.624Z,41
2022-12-04T20:01:10.713Z,40
2022-12-04T20:02:10.669Z,39
2022-12-04T20:03:10.627Z,36
2022-12-04T20:04:10.697Z,41
2022-12-04T20:05:10.629Z,37
2022-12-04T20:06:10.635Z,45
2022-12-04T20:07:10.626Z,43
2022-12-04T23:53:14.380Z,35
